Time;durP1;ratioP1;P1;durP2;ratioP2;P2;SDS_P1;SDS_P2;PMS_P1;PMS_P2;Temp;Humidity;BMP_temperature;BMP_pressure;BME280_temperature;BME280_humidity;BME280_pressure;Samples;Min_cycle;Max_cycle;Signal;HPM_P1;HPM_P2
2022/02/19 00:01:41;;;;;;;;;;;;;;;;;;4967188;28;19926;-66
2022/02/19 00:04:08;;;;;;;;;;;;;;;;;;4970032;28;19926;-66
2022/02/19 00:06:37;;;;;;;;;;;;;;;;;;4967354;28;19933;-66
2022/02/19 00:09:04;;;;;;;;;;;;;;;;;;4968525;28;20408;-66
2022/02/19 00:11:31;;;;;;;;;;;;;;;;;;4971172;28;20377;-66
2022/02/19 00:13:58;;;;;;;;;;;;;;;;;;4968371;28;20351;-65
2022/02/19 00:16:25;;;;;;;;;;;;;;;;;;4971150;28;19926;-65
2022/02/19 00:18:52;;;;;;;;;;;;;;;;;;4970553;28;19933;-66
2022/02/19 00:21:19;;;;;;;;;;;;;;;;;;4968324;28;19926;-67
2022/02/19 00:23:46;;;;;;;;;;;;;;;;;;4969896;28;19926;-66
2022/02/19 00:26:13;;;;;;;;;;;;;;;;;;4971226;28;20398;-66
2022/02/19 00:28:40;;;;;;;;;;;;;;;;;;4970738;28;19926;-66
2022/02/19 00:31:07;;;;;;;;;;;;;;;;;;4966846;28;19932;-66
2022/02/19 00:33:34;;;;;;;;;;;;;;;;;;4966211;28;19934;-65
2022/02/19 00:36:00;;;;;;;;;;;;;;;;;;4968933;28;20305;-66
2022/02/19 00:38:28;;;;;;;;;;;;;;;;;;4968078;28;19934;-66
2022/02/19 00:40:55;;;;;;;;;;;;;;;;;;4969434;28;19934;-65
2022/02/19 00:43:22;;;;;;;;;;;;;;;;;;4968315;28;19952;-66
2022/02/19 00:45:50;;;;;;;;;;;;;;;;;;4967649;28;19934;-65
2022/02/19 00:48:17;;;;;;;;;;;;;;;;;;4971200;28;19945;-66
2022/02/19 00:50:46;;;;;;;;;;;;;;;;;;4970362;28;19933;-66
2022/02/19 00:53:13;;;;;;;;;;;;;;;;;;4967022;28;19933;-66
2022/02/19 00:55:40;;;;;;;;;;;;;;;;;;4970941;28;19926;-65
2022/02/19 00:58:07;;;;;;;;;;;;;;;;;;4968459;28;19937;-67
2022/02/19 01:00:34;;;;;;;;;;;;;;;;;;4968634;28;20346;-66
2022/02/19 01:03:01;;;;;;;;;;;;;;;;;;4971393;28;19937;-66
2022/02/19 01:05:28;;;;;;;;;;;;;;;;;;4968918;28;19926;-65
2022/02/19 01:07:55;;;;;;;;;;;;;;;;;;4969242;28;19937;-67
2022/02/19 01:10:22;;;;;;;;;;;;;;;;;;4966581;28;20345;-66
2022/02/19 01:12:49;;;;;;;;;;;;;;;;;;4973343;28;19933;-65
2022/02/19 01:15:16;;;;;;;;;;;;;;;;;;4969560;28;19926;-66
2022/02/19 01:17:43;;;;;;;;;;;;;;;;;;4968275;28;19938;-66
2022/02/19 01:20:10;;;;;;;;;;;;;;;;;;4969039;28;19926;-65
2022/02/19 01:22:38;;;;;;;;;;;;;;;;;;4967785;28;19940;-65
2022/02/19 01:25:05;;;;;;;;;;;;;;;;;;4966099;28;19926;-66
2022/02/19 01:27:32;;;;;;;;;;;;;;;;;;4964276;28;19926;-65
2022/02/19 01:29:59;;;;;;;;;;;;;;;;;;4967167;28;19926;-66
2022/02/19 01:32:26;;;;;;;;;;;;;;;;;;4969023;28;19932;-66
2022/02/19 01:34:53;;;;;;;;;;;;;;;;;;4969532;28;19930;-65
2022/02/19 01:37:20;;;;;;;;;;;;;;;;;;4970342;28;20286;-66
2022/02/19 01:39:47;;;;;;;;;;;;;;;;;;4967378;28;19934;-66
2022/02/19 01:42:14;;;;;;;;;;;;;;;;;;4968539;28;19949;-66
2022/02/19 01:44:41;;;;;;;;;;;;;;;;;;4967624;28;19930;-65
2022/02/19 01:47:08;;;;;;;;;;;;;;;;;;4966650;28;19936;-66
2022/02/19 01:49:34;;;;;;;;;;;;;;;;;;4963128;28;20301;-65
2022/02/19 01:52:02;;;;;;;;;;;;;;;;;;4965415;28;19926;-66
2022/02/19 01:54:29;;;;;;;;;;;;;;;;;;4969480;28;19933;-65
2022/02/19 01:56:55;;;;;;;;;;;;;;;;;;4962980;28;19934;-66
2022/02/19 01:59:22;;;;;;;;;;;;;;;;;;4971044;28;19934;-66
2022/02/19 02:01:49;;;;;;;;;;;;;;;;;;4966598;28;19926;-66
2022/02/19 02:04:16;;;;;;;;;;;;;;;;;;4964388;28;19930;-65
2022/02/19 02:06:43;;;;;;;;;;;;;;;;;;4966279;28;19926;-66
2022/02/19 02:09:10;;;;;;;;;;;;;;;;;;4969924;28;19926;-66
2022/02/19 02:11:37;;;;;;;;;;;;;;;;;;4962647;28;19930;-64
2022/02/19 02:14:04;;;;;;;;;;;;;;;;;;4967232;28;19933;-65
2022/02/19 02:16:31;;;;;;;;;;;;;;;;;;4969477;28;19926;-66
2022/02/19 02:18:58;;;;;;;;;;;;;;;;;;4966990;28;19933;-66
2022/02/19 02:21:25;;;;;;;;;;;;;;;;;;4964857;28;19937;-66
2022/02/19 02:23:52;;;;;;;;;;;;;;;;;;4967716;28;19933;-65
2022/02/19 02:26:19;;;;;;;;;;;;;;;;;;4969216;28;19930;-65
2022/02/19 02:28:46;;;;;;;;;;;;;;;;;;4971522;28;20386;-66
2022/02/19 02:31:13;;;;;;;;;;;;;;;;;;4964568;28;20327;-65
2022/02/19 02:33:40;;;;;;;;;;;;;;;;;;4970018;28;19930;-67
2022/02/19 02:36:07;;;;;;;;;;;;;;;;;;4967521;28;20452;-65
2022/02/19 02:38:34;;;;;;;;;;;;;;;;;;4968699;28;20382;-66
2022/02/19 02:41:01;;;;;;;;;;;;;;;;;;4962624;28;20021;-65
2022/02/19 02:43:28;;;;;;;;;;;;;;;;;;4965430;28;19930;-65
2022/02/19 02:45:55;;;;;;;;;;;;;;;;;;4962978;28;20317;-65
2022/02/19 02:48:22;;;;;;;;;;;;;;;;;;4969602;28;19926;-65
2022/02/19 02:50:49;;;;;;;;;;;;;;;;;;4965774;28;19989;-66
2022/02/19 02:53:16;;;;;;;;;;;;;;;;;;4966747;28;19926;-66
2022/02/19 02:55:43;;;;;;;;;;;;;;;;;;4964891;28;19934;-66
2022/02/19 02:58:11;;;;;;;;;;;;;;;;;;4967855;28;19934;-65
2022/02/19 03:00:38;;;;;;;;;;;;;;;;;;4964663;28;20029;-66
2022/02/19 03:03:04;;;;;;;;;;;;;;;;;;4969999;28;19949;-65
2022/02/19 03:05:31;;;;;;;;;;;;;;;;;;4968372;28;19934;-66
2022/02/19 03:07:58;;;;;;;;;;;;;;;;;;4968042;28;19926;-66
2022/02/19 03:10:25;;;;;;;;;;;;;;;;;;4966824;28;19940;-66
2022/02/19 03:12:52;;;;;;;;;;;;;;;;;;4970336;28;19926;-66
2022/02/19 03:15:21;;;;;;;;;;;;;;;;;;4965950;28;20373;-65
2022/02/19 03:17:48;;;;;;;;;;;;;;;;;;4966876;28;19934;-65
2022/02/19 03:20:15;;;;;;;;;;;;;;;;;;4962978;28;19926;-65
2022/02/19 03:22:42;;;;;;;;;;;;;;;;;;4970569;28;19930;-65
2022/02/19 03:25:09;;;;;;;;;;;;;;;;;;4971110;28;20405;-65
2022/02/19 03:27:36;;;;;;;;;;;;;;;;;;4970496;28;19980;-65
2022/02/19 03:30:03;;;;;;;;;;;;;;;;;;4972912;28;20130;-65
2022/02/19 03:32:30;;;;;;;;;;;;;;;;;;4970483;28;19937;-65
2022/02/19 03:34:57;;;;;;;;;;;;;;;;;;4970555;28;19937;-65
2022/02/19 03:37:24;;;;;;;;;;;;;;;;;;4973406;28;20313;-65
2022/02/19 03:39:51;;;;;;;;;;;;;;;;;;4972432;28;19926;-65
2022/02/19 03:42:18;;;;;;;;;;;;;;;;;;4968002;28;19937;-66
2022/02/19 03:44:45;;;;;;;;;;;;;;;;;;4969968;28;19926;-65
2022/02/19 03:47:12;;;;;;;;;;;;;;;;;;4970219;28;19948;-66
2022/02/19 03:49:38;;;;;;;;;;;;;;;;;;4969814;28;20310;-66
2022/02/19 03:52:05;;;;;;;;;;;;;;;;;;4971018;28;20258;-65
2022/02/19 03:54:32;;;;;;;;;;;;;;;;;;4970409;28;20305;-66
2022/02/19 03:56:59;;;;;;;;;;;;;;;;;;4970536;28;20389;-66
2022/02/19 03:59:26;;;;;;;;;;;;;;;;;;4971483;28;20322;-65
2022/02/19 04:01:53;;;;;;;;;;;;;;;;;;4969616;28;19927;-65
2022/02/19 04:04:20;;;;;;;;;;;;;;;;;;4972543;28;19930;-65
2022/02/19 04:06:47;;;;;;;;;;;;;;;;;;4973229;28;19934;-65
2022/02/19 04:09:14;;;;;;;;;;;;;;;;;;4974367;28;19926;-66
2022/02/19 04:11:42;;;;;;;;;;;;;;;;;;4972536;28;20317;-66
2022/02/19 04:14:09;;;;;;;;;;;;;;;;;;4966359;28;20025;-66
2022/02/19 04:16:36;;;;;;;;;;;;;;;;;;4972591;28;19934;-66
2022/02/19 04:19:03;;;;;;;;;;;;;;;;;;4972651;28;19926;-65
2022/02/19 04:21:30;;;;;;;;;;;;;;;;;;4970567;28;20404;-66
2022/02/19 04:23:57;;;;;;;;;;;;;;;;;;4968982;28;19929;-66
2022/02/19 04:26:24;;;;;;;;;;;;;;;;;;4973773;28;19926;-66
2022/02/19 04:28:51;;;;;;;;;;;;;;;;;;4970080;28;19934;-66
2022/02/19 04:31:18;;;;;;;;;;;;;;;;;;4965099;28;19956;-66
2022/02/19 04:33:45;;;;;;;;;;;;;;;;;;4971922;28;19933;-66
2022/02/19 04:36:12;;;;;;;;;;;;;;;;;;4973450;28;20354;-65
2022/02/19 04:38:39;;;;;;;;;;;;;;;;;;4969849;28;19940;-65
2022/02/19 04:41:06;;;;;;;;;;;;;;;;;;4967489;28;19934;-66
2022/02/19 04:43:33;;;;;;;;;;;;;;;;;;4970210;28;20308;-66
2022/02/19 04:46:00;;;;;;;;;;;;;;;;;;4970626;28;19926;-66
2022/02/19 04:48:27;;;;;;;;;;;;;;;;;;4969799;28;19933;-66
2022/02/19 04:50:53;;;;;;;;;;;;;;;;;;4975227;28;20024;-66
2022/02/19 04:53:20;;;;;;;;;;;;;;;;;;4969627;28;20133;-66
2022/02/19 04:55:47;;;;;;;;;;;;;;;;;;4970310;28;19941;-66
2022/02/19 04:58:14;;;;;;;;;;;;;;;;;;4976935;28;20012;-66
2022/02/19 05:00:42;;;;;;;;;;;;;;;;;;4973050;28;19937;-66
2022/02/19 05:03:08;;;;;;;;;;;;;;;;;;4975903;28;19953;-66
2022/02/19 05:05:35;;;;;;;;;;;;;;;;;;4972168;28;20010;-66
2022/02/19 05:08:02;;;;;;;;;;;;;;;;;;4969553;28;19940;-65
2022/02/19 05:10:30;;;;;;;;;;;;;;;;;;4972764;28;20297;-65
2022/02/19 05:12:57;;;;;;;;;;;;;;;;;;4978261;28;20381;-66
2022/02/19 05:15:24;;;;;;;;;;;;;;;;;;4971905;28;20325;-65
2022/02/19 05:17:51;;;;;;;;;;;;;;;;;;4970754;28;19927;-66
2022/02/19 05:20:18;;;;;;;;;;;;;;;;;;4971998;28;19926;-66
2022/02/19 05:22:45;;;;;;;;;;;;;;;;;;4974097;28;19926;-66
2022/02/19 05:25:12;;;;;;;;;;;;;;;;;;4970865;28;19927;-66
2022/02/19 05:27:39;;;;;;;;;;;;;;;;;;4971422;28;19936;-66
2022/02/19 05:30:06;;;;;;;;;;;;;;;;;;4971787;28;19926;-66
2022/02/19 05:32:33;;;;;;;;;;;;;;;;;;4972255;28;20385;-66
2022/02/19 05:35:00;;;;;;;;;;;;;;;;;;5035817;23;19925;-71
2022/02/19 05:37:26;;;;;;;;;;;;;;;;;;4988633;28;19949;-71
2022/02/19 05:39:53;;;;;;;;;;;;;;;;;;4993866;28;20377;-71
2022/02/19 05:42:20;;;;;;;;;;;;;;;;;;4984475;28;19926;-71
2022/02/19 05:44:47;;;;;;;;;;;;;;;;;;4983785;28;19934;-71
2022/02/19 05:47:14;;;;;;;;;;;;;;;;;;4986230;28;19926;-72
2022/02/19 05:49:41;;;;;;;;;;;;;;;;;;4987620;28;19937;-73
2022/02/19 05:52:08;;;;;;;;;;;;;;;;;;4992021;28;19930;-71
2022/02/19 05:54:35;;;;;;;;;;;;;;;;;;4982600;28;19926;-72
2022/02/19 05:57:02;;;;;;;;;;;;;;;;;;4989028;28;20008;-71
2022/02/19 05:59:29;;;;;;;;;;;;;;;;;;4987728;28;19954;-72
2022/02/19 06:01:56;;;;;;;;;;;;;;;;;;4988134;28;20293;-72
2022/02/19 06:04:23;;;;;;;;;;;;;;;;;;4985727;28;20357;-74
2022/02/19 06:06:50;;;;;;;;;;;;;;;;;;4984986;28;21515;-70
2022/02/19 06:09:17;;;;;;;;;;;;;;;;;;4983612;28;19973;-72
2022/02/19 06:11:44;;;;;;;;;;;;;;;;;;4988225;28;19926;-71
2022/02/19 06:14:11;;;;;;;;;;;;;;;;;;4982048;28;19926;-73
2022/02/19 06:16:38;;;;;;;;;;;;;;;;;;4981182;28;19926;-72
2022/02/19 06:19:05;;;;;;;;;;;;;;;;;;4983354;28;20415;-72
2022/02/19 06:21:32;;;;;;;;;;;;;;;;;;4988909;28;19935;-70
2022/02/19 06:23:59;;;;;;;;;;;;;;;;;;4986957;28;19936;-71
2022/02/19 06:26:26;;;;;;;;;;;;;;;;;;4986359;28;20293;-71
2022/02/19 06:28:53;;;;;;;;;;;;;;;;;;4990003;28;20408;-71
2022/02/19 06:31:20;;;;;;;;;;;;;;;;;;4988336;28;19926;-72
2022/02/19 06:33:47;;;;;;;;;;;;;;;;;;4989624;28;19925;-71
2022/02/19 06:36:14;;;;;;;;;;;;;;;;;;4988878;28;19932;-70
2022/02/19 06:38:41;;;;;;;;;;;;;;;;;;4988968;28;19933;-70
2022/02/19 06:41:08;;;;;;;;;;;;;;;;;;4985893;28;19926;-71
2022/02/19 06:43:35;;;;;;;;;;;;;;;;;;4981273;28;19938;-71
2022/02/19 06:46:02;;;;;;;;;;;;;;;;;;4983670;28;19936;-70
2022/02/19 06:48:29;;;;;;;;;;;;;;;;;;4983311;28;19933;-71
2022/02/19 06:50:56;;;;;;;;;;;;;;;;;;4987765;28;19945;-71
2022/02/19 06:53:23;;;;;;;;;;;;;;;;;;4986127;28;19932;-70
2022/02/19 06:55:50;;;;;;;;;;;;;;;;;;4985057;28;20290;-71
2022/02/19 06:58:17;;;;;;;;;;;;;;;;;;4991504;28;19925;-71
2022/02/19 07:00:44;;;;;;;;;;;;;;;;;;4985384;28;20017;-71
2022/02/19 07:03:11;;;;;;;;;;;;;;;;;;4992020;28;20293;-72
2022/02/19 07:05:38;;;;;;;;;;;;;;;;;;4992656;28;19933;-71
2022/02/19 07:08:05;;;;;;;;;;;;;;;;;;4982897;28;19938;-71
2022/02/19 07:10:32;;;;;;;;;;;;;;;;;;4994480;28;19934;-71
2022/02/19 07:12:59;;;;;;;;;;;;;;;;;;4992990;28;20424;-71
2022/02/19 07:15:26;;;;;;;;;;;;;;;;;;4998373;28;19929;-70
2022/02/19 07:17:53;;;;;;;;;;;;;;;;;;4992735;28;20377;-70
2022/02/19 07:20:21;;;;;;;;;;;;;;;;;;4991874;28;20329;-69
2022/02/19 07:22:48;;;;;;;;;;;;;;;;;;4991753;28;19964;-71
2022/02/19 07:25:15;;;;;;;;;;;;;;;;;;4991760;28;19925;-71
2022/02/19 07:27:42;;;;;;;;;;;;;;;;;;4990962;28;19945;-70
2022/02/19 07:30:09;;;;;;;;;;;;;;;;;;4992842;28;19932;-71
2022/02/19 07:32:36;;;;;;;;;;;;;;;;;;4987926;28;19926;-71
2022/02/19 07:35:02;;;;;;;;;;;;;;;;;;4993695;28;19937;-71
2022/02/19 07:37:29;;;;;;;;;;;;;;;;;;4983418;28;19926;-71
2022/02/19 07:39:56;;;;;;;;;;;;;;;;;;4993697;28;19926;-71
2022/02/19 07:42:23;;;;;;;;;;;;;;;;;;4994212;28;20016;-69
2022/02/19 07:44:51;;;;;;;;;;;;;;;;;;4983675;28;19929;-70
2022/02/19 07:47:18;;;;;;;;;;;;;;;;;;4992585;28;19929;-70
2022/02/19 08:00:44;;;;;;;;;;;;;;;;;;4988056;28;19948;-71
2022/02/19 08:03:11;;;;;;;;;;;;;;;;;;4986880;28;19926;-69
2022/02/19 08:05:38;;;;;;;;;;;;;;;;;;4992142;28;19926;-70
2022/02/19 08:08:05;;;;;;;;;;;;;;;;;;4988835;28;20172;-71
2022/02/19 08:10:32;;;;;;;;;;;;;;;;;;4989611;28;19930;-69
2022/02/19 08:12:59;;;;;;;;;;;;;;;;;;4990849;28;19926;-70
2022/02/19 08:15:26;;;;;;;;;;;;;;;;;;4990991;28;19955;-70
2022/02/19 08:17:52;;;;;;;;;;;;;;;;;;4982741;28;19933;-70
2022/02/19 08:20:19;;;;;;;;;;;;;;;;;;4985917;28;19926;-71
2022/02/19 08:22:46;;;;;;;;;;;;;;;;;;4990352;28;19933;-72
2022/02/19 08:25:13;;;;;;;;;;;;;;;;;;4981967;28;19933;-70
2022/02/19 08:27:40;;;;;;;;;;;;;;;;;;4988813;28;19926;-70
2022/02/19 08:30:07;;;;;;;;;;;;;;;;;;4988707;28;19926;-70
2022/02/19 08:32:34;;;;;;;;;;;;;;;;;;4981729;28;19926;-71
2022/02/19 08:35:01;;;;;;;;;;;;;;;;;;4985408;28;19926;-70
2022/02/19 08:37:29;;;;;;;;;;;;;;;;;;4984419;28;19925;-70
2022/02/19 08:39:56;;;;;;;;;;;;;;;;;;4986325;28;19930;-71
2022/02/19 08:42:23;;;;;;;;;;;;;;;;;;4989668;28;19925;-70
2022/02/19 08:44:50;;;;;;;;;;;;;;;;;;4991121;28;19936;-71
2022/02/19 08:47:17;;;;;;;;;;;;;;;;;;4993879;28;19926;-70
2022/02/19 08:49:44;;;;;;;;;;;;;;;;;;4988870;28;19932;-70
2022/02/19 08:52:11;;;;;;;;;;;;;;;;;;4985016;28;20455;-71
2022/02/19 08:54:37;;;;;;;;;;;;;;;;;;4987023;28;20409;-70
2022/02/19 08:57:04;;;;;;;;;;;;;;;;;;4990346;28;19929;-70
2022/02/19 08:59:31;;;;;;;;;;;;;;;;;;4986851;28;19926;-70
2022/02/19 09:01:59;;;;;;;;;;;;;;;;;;4990530;28;19926;-70
2022/02/19 09:04:26;;;;;;;;;;;;;;;;;;4985362;28;20073;-71
2022/02/19 09:06:53;;;;;;;;;;;;;;;;;;4991913;28;19930;-70
2022/02/19 09:09:20;;;;;;;;;;;;;;;;;;4984797;28;19934;-69
2022/02/19 09:11:47;;;;;;;;;;;;;;;;;;4988521;28;19941;-69
2022/02/19 09:14:14;;;;;;;;;;;;;;;;;;4986194;28;20400;-70
2022/02/19 09:16:41;;;;;;;;;;;;;;;;;;4984720;28;19929;-70
2022/02/19 09:19:07;;;;;;;;;;;;;;;;;;4985320;28;19926;-68
2022/02/19 09:21:36;;;;;;;;;;;;;;;;;;4981785;28;19925;-68
2022/02/19 09:24:03;;;;;;;;;;;;;;;;;;4990427;28;20002;-68
2022/02/19 09:26:30;;;;;;;;;;;;;;;;;;4988018;28;19933;-68
2022/02/19 09:28:57;;;;;;;;;;;;;;;;;;4994063;28;19925;-69
2022/02/19 09:31:24;;;;;;;;;;;;;;;;;;4990892;28;20302;-69
2022/02/19 09:33:51;;;;;;;;;;;;;;;;;;4988914;28;20424;-69
2022/02/19 09:36:18;;;;;;;;;;;;;;;;;;4992436;28;20020;-69
2022/02/19 09:38:47;;;;;;;;;;;;;;;;;;4986242;28;19926;-70
2022/02/19 09:41:14;;;;;;;;;;;;;;;;;;4986482;28;19933;-69
2022/02/19 09:43:41;;;;;;;;;;;;;;;;;;4985429;28;19932;-67
2022/02/19 09:46:08;;;;;;;;;;;;;;;;;;4989960;28;20025;-68
2022/02/19 09:48:37;;;;;;;;;;;;;;;;;;4989778;28;19937;-67
2022/02/19 09:51:05;;;;;;;;;;;;;;;;;;4988680;28;19929;-70
2022/02/19 09:53:32;;;;;;;;;;;;;;;;;;4984764;28;20373;-69
2022/02/19 09:55:59;;;;;;;;;;;;;;;;;;4984036;28;20314;-70
2022/02/19 09:58:28;;;;;;;;;;;;;;;;;;4989131;28;19930;-69
2022/02/19 10:00:55;;;;;;;;;;;;;;;;;;4989879;28;20017;-68
2022/02/19 10:03:22;;;;;;;;;;;;;;;;;;4985400;28;19969;-67
2022/02/19 10:05:49;;;;;;;;;;;;;;;;;;4985537;28;19933;-68
2022/02/19 10:08:16;;;;;;;;;;;;;;;;;;4987064;28;19933;-68
2022/02/19 10:10:43;;;;;;;;;;;;;;;;;;4987627;28;19934;-68
2022/02/19 10:13:10;;;;;;;;;;;;;;;;;;4979857;28;19933;-68
2022/02/19 10:15:37;;;;;;;;;;;;;;;;;;4983390;28;20532;-68
2022/02/19 10:18:04;;;;;;;;;;;;;;;;;;4982331;28;19926;-68
2022/02/19 10:20:33;;;;;;;;;;;;;;;;;;4984101;28;19926;-68
2022/02/19 10:22:59;;;;;;;;;;;;;;;;;;4982329;28;20368;-68
2022/02/19 10:25:27;;;;;;;;;;;;;;;;;;4984621;28;19941;-69
2022/02/19 10:28:00;;;;;;;;;;;;;;;;;;4987696;28;20013;-69
2022/02/19 10:30:27;;;;;;;;;;;;;;;;;;4987964;28;19926;-69
2022/02/19 10:32:54;;;;;;;;;;;;;;;;;;4982317;28;20187;-68
2022/02/19 10:35:21;;;;;;;;;;;;;;;;;;4979680;28;19926;-69
2022/02/19 10:37:48;;;;;;;;;;;;;;;;;;4985357;28;20018;-68
2022/02/19 10:40:15;;;;;;;;;;;;;;;;;;4988072;28;19926;-69
2022/02/19 10:42:42;;;;;;;;;;;;;;;;;;4980370;28;19926;-68
2022/02/19 10:45:09;;;;;;;;;;;;;;;;;;4974552;28;19930;-68
2022/02/19 10:47:36;;;;;;;;;;;;;;;;;;4982655;28;19933;-69
2022/02/19 10:50:03;;;;;;;;;;;;;;;;;;4990316;28;20367;-69
2022/02/19 10:52:30;;;;;;;;;;;;;;;;;;4990396;28;19930;-69
2022/02/19 10:54:57;;;;;;;;;;;;;;;;;;4987302;28;20004;-68
2022/02/19 10:57:24;;;;;;;;;;;;;;;;;;4992468;28;19925;-68
2022/02/19 10:59:51;;;;;;;;;;;;;;;;;;4989941;28;20393;-69
2022/02/19 11:02:18;;;;;;;;;;;;;;;;;;4986843;28;20300;-69
2022/02/19 11:04:45;;;;;;;;;;;;;;;;;;4978213;28;19926;-68
2022/02/19 11:07:12;;;;;;;;;;;;;;;;;;4985088;28;20012;-69
2022/02/19 11:09:39;;;;;;;;;;;;;;;;;;4986682;28;19932;-69
2022/02/19 11:12:06;;;;;;;;;;;;;;;;;;4989453;28;19933;-68
2022/02/19 11:14:33;;;;;;;;;;;;;;;;;;4976302;28;19941;-67
2022/02/19 11:17:00;;;;;;;;;;;;;;;;;;4974317;28;19933;-69
2022/02/19 11:19:27;;;;;;;;;;;;;;;;;;4974576;28;19944;-71
2022/02/19 11:21:57;;;;;;;;;;;;;;;;;;4979119;28;20024;-68
2022/02/19 11:24:24;;;;;;;;;;;;;;;;;;4980057;28;20490;-69
2022/02/19 11:26:52;;;;;;;;;;;;;;;;;;4980330;28;20021;-71
2022/02/19 11:29:19;;;;;;;;;;;;;;;;;;4977610;28;20172;-70
2022/02/19 11:31:46;;;;;;;;;;;;;;;;;;4985575;28;19926;-68
2022/02/19 11:34:13;;;;;;;;;;;;;;;;;;4992434;23;19917;-69
2022/02/19 11:36:40;;;;;;;;;;;;;;;;;;4971600;28;19930;-71
2022/02/19 11:39:07;;;;;;;;;;;;;;;;;;4960369;28;19930;-68
2022/02/19 11:41:35;;;;;;;;;;;;;;;;;;4969790;28;19926;-67
2022/02/19 11:44:02;;;;;;;;;;;;;;;;;;4975245;28;20364;-68
2022/02/19 11:46:29;;;;;;;;;;;;;;;;;;4977624;28;19926;-68
2022/02/19 11:48:56;;;;;;;;;;;;;;;;;;4979010;28;19926;-68
2022/02/19 11:51:23;;;;;;;;;;;;;;;;;;4979045;28;19926;-68
2022/02/19 11:53:50;;;;;;;;;;;;;;;;;;4977507;28;19930;-69
2022/02/19 11:56:17;;;;;;;;;;;;;;;;;;4980181;28;19925;-69
2022/02/19 11:58:44;;;;;;;;;;;;;;;;;;4978092;28;19925;-69
2022/02/19 12:01:12;;;;;;;;;;;;;;;;;;4975194;28;20290;-69
2022/02/19 12:03:39;;;;;;;;;;;;;;;;;;4979286;28;20009;-68
2022/02/19 12:06:06;;;;;;;;;;;;;;;;;;4973026;28;19927;-69
2022/02/19 12:08:32;;;;;;;;;;;;;;;;;;4971367;28;19961;-69
2022/02/19 12:10:59;;;;;;;;;;;;;;;;;;4970209;28;20316;-69
2022/02/19 12:13:26;;;;;;;;;;;;;;;;;;4965192;28;20313;-68
2022/02/19 12:16:00;;;;;;;;;;;;;;;;;;4969799;28;20385;-68
2022/02/19 12:18:27;;;;;;;;;;;;;;;;;;4971995;28;19926;-69
2022/02/19 12:20:55;;;;;;;;;;;;;;;;;;4966580;28;19934;-68
2022/02/19 12:23:22;;;;;;;;;;;;;;;;;;4970246;28;19933;-68
2022/02/19 12:25:49;;;;;;;;;;;;;;;;;;4969764;28;19955;-68
2022/02/19 12:28:16;;;;;;;;;;;;;;;;;;4968663;28;19926;-68
2022/02/19 12:30:44;;;;;;;;;;;;;;;;;;4959503;28;19926;-68
2022/02/19 12:33:11;;;;;;;;;;;;;;;;;;4971231;28;19934;-68
2022/02/19 12:35:37;;;;;;;;;;;;;;;;;;4970560;28;19933;-68
2022/02/19 12:38:04;;;;;;;;;;;;;;;;;;4967281;28;20286;-68
2022/02/19 12:40:31;;;;;;;;;;;;;;;;;;4970941;28;20950;-68
2022/02/19 12:42:58;;;;;;;;;;;;;;;;;;4962070;28;20034;-68
2022/02/19 12:45:25;;;;;;;;;;;;;;;;;;4962165;28;19926;-68
2022/02/19 12:47:52;;;;;;;;;;;;;;;;;;4958774;28;19926;-68
2022/02/19 12:50:19;;;;;;;;;;;;;;;;;;4961394;28;20469;-68
2022/02/19 12:52:46;;;;;;;;;;;;;;;;;;4972081;28;19930;-69
2022/02/19 12:55:17;;;;;;;;;;;;;;;;;;4957432;28;19933;-69
2022/02/19 12:57:43;;;;;;;;;;;;;;;;;;4964553;28;20349;-68
2022/02/19 13:00:10;;;;;;;;;;;;;;;;;;4969327;28;19926;-68
2022/02/19 13:02:37;;;;;;;;;;;;;;;;;;4968793;28;19926;-68
2022/02/19 13:05:04;;;;;;;;;;;;;;;;;;4968127;28;19933;-68
2022/02/19 13:07:31;;;;;;;;;;;;;;;;;;4971769;28;19937;-67
2022/02/19 13:09:58;;;;;;;;;;;;;;;;;;4963139;28;19950;-67
2022/02/19 13:12:26;;;;;;;;;;;;;;;;;;4962318;28;19926;-68
2022/02/19 13:14:53;;;;;;;;;;;;;;;;;;4967781;28;19930;-68
2022/02/19 13:17:20;;;;;;;;;;;;;;;;;;4971995;28;19933;-68
2022/02/19 13:19:47;;;;;;;;;;;;;;;;;;4965526;28;19934;-68
2022/02/19 13:22:14;;;;;;;;;;;;;;;;;;4969314;28;19957;-68
2022/02/19 13:24:41;;;;;;;;;;;;;;;;;;4959725;28;19937;-68
2022/02/19 13:27:07;;;;;;;;;;;;;;;;;;4967338;28;19933;-67
2022/02/19 13:29:34;;;;;;;;;;;;;;;;;;4965605;28;19927;-69
2022/02/19 13:32:01;;;;;;;;;;;;;;;;;;4962888;28;19937;-68
2022/02/19 13:34:28;;;;;;;;;;;;;;;;;;4969264;28;19934;-68
2022/02/19 13:36:55;;;;;;;;;;;;;;;;;;4963055;28;19949;-69
2022/02/19 13:39:24;;;;;;;;;;;;;;;;;;4970355;28;19926;-66
2022/02/19 13:41:51;;;;;;;;;;;;;;;;;;4965749;28;20363;-72
2022/02/19 13:44:22;;;;;;;;;;;;;;;;;;4969687;28;19930;-72
2022/02/19 13:46:49;;;;;;;;;;;;;;;;;;4964023;28;19926;-71
2022/02/19 13:49:17;;;;;;;;;;;;;;;;;;4960908;28;19927;-70
2022/02/19 13:51:44;;;;;;;;;;;;;;;;;;4962848;28;19925;-71
2022/02/19 13:54:11;;;;;;;;;;;;;;;;;;4965356;28;20314;-73
2022/02/19 13:56:38;;;;;;;;;;;;;;;;;;4980918;28;19934;-74
2022/02/19 13:59:05;;;;;;;;;;;;;;;;;;4973528;28;19930;-68
2022/02/19 14:01:33;;;;;;;;;;;;;;;;;;4975099;28;19926;-68
2022/02/19 14:04:06;;;;;;;;;;;;;;;;;;4972579;28;22578;-69
2022/02/19 14:06:35;;;;;;;;;;;;;;;;;;4972375;28;19938;-70
2022/02/19 14:09:02;;;;;;;;;;;;;;;;;;4979332;28;19930;-70
2022/02/19 14:11:28;;;;;;;;;;;;;;;;;;4974392;28;19934;-70
2022/02/19 14:13:55;;;;;;;;;;;;;;;;;;4975279;28;20369;-69
2022/02/19 14:16:22;;;;;;;;;;;;;;;;;;4967696;28;19933;-69
2022/02/19 14:18:49;;;;;;;;;;;;;;;;;;4972538;28;20333;-69
2022/02/19 14:21:16;;;;;;;;;;;;;;;;;;4968859;28;19940;-69
2022/02/19 14:23:43;;;;;;;;;;;;;;;;;;4977714;28;19933;-68
2022/02/19 14:26:10;;;;;;;;;;;;;;;;;;4975025;28;19926;-70
2022/02/19 14:28:37;;;;;;;;;;;;;;;;;;4968443;28;19926;-68
2022/02/19 14:31:04;;;;;;;;;;;;;;;;;;4951329;28;20385;-69
2022/02/19 14:33:31;;;;;;;;;;;;;;;;;;4960439;28;19930;-69
2022/02/19 14:35:58;;;;;;;;;;;;;;;;;;4968677;28;19926;-69
2022/02/19 14:38:24;;;;;;;;;;;;;;;;;;4963109;28;19927;-68
2022/02/19 14:40:51;;;;;;;;;;;;;;;;;;4969922;28;19930;-68
2022/02/19 14:43:18;;;;;;;;;;;;;;;;;;4965275;28;19932;-68
2022/02/19 14:45:45;;;;;;;;;;;;;;;;;;4963763;28;20037;-69
2022/02/19 14:48:12;;;;;;;;;;;;;;;;;;4967815;28;19973;-68
2022/02/19 14:50:39;;;;;;;;;;;;;;;;;;4970724;28;19926;-68
2022/02/19 14:53:07;;;;;;;;;;;;;;;;;;4954888;28;19934;-69
2022/02/19 14:55:34;;;;;;;;;;;;;;;;;;4962650;28;19926;-69
2022/02/19 14:58:01;;;;;;;;;;;;;;;;;;4971471;28;19950;-68
2022/02/19 15:00:28;;;;;;;;;;;;;;;;;;4967714;28;19926;-68
2022/02/19 15:02:55;;;;;;;;;;;;;;;;;;4966907;28;19948;-68
2022/02/19 15:05:22;;;;;;;;;;;;;;;;;;4964325;28;20306;-68
2022/02/19 15:07:49;;;;;;;;;;;;;;;;;;4967734;28;19926;-69
2022/02/19 15:10:16;;;;;;;;;;;;;;;;;;4966803;28;19927;-69
2022/02/19 15:12:44;;;;;;;;;;;;;;;;;;4978263;28;19926;-69
2022/02/19 15:15:11;;;;;;;;;;;;;;;;;;4964083;28;20401;-69
2022/02/19 15:17:38;;;;;;;;;;;;;;;;;;4965754;28;20006;-68
2022/02/19 15:20:05;;;;;;;;;;;;;;;;;;4968610;28;19926;-69
2022/02/19 15:22:31;;;;;;;;;;;;;;;;;;4968793;28;19930;-69
2022/02/19 15:24:58;;;;;;;;;;;;;;;;;;4975404;28;19926;-69
2022/02/19 15:27:25;;;;;;;;;;;;;;;;;;4968099;28;20393;-69
2022/02/19 15:29:52;;;;;;;;;;;;;;;;;;4971434;28;19926;-68
2022/02/19 15:32:19;;;;;;;;;;;;;;;;;;4969697;28;19933;-69
2022/02/19 15:34:46;;;;;;;;;;;;;;;;;;4971433;28;19930;-69
2022/02/19 15:37:13;;;;;;;;;;;;;;;;;;4970669;28;19926;-68
2022/02/19 15:39:40;;;;;;;;;;;;;;;;;;4974103;28;20404;-69
2022/02/19 15:42:07;;;;;;;;;;;;;;;;;;4975254;28;19930;-69
2022/02/19 15:44:34;;;;;;;;;;;;;;;;;;4974204;28;19973;-68
2022/02/19 15:47:01;;;;;;;;;;;;;;;;;;4968313;28;19937;-68
2022/02/19 15:49:28;;;;;;;;;;;;;;;;;;4970640;28;19926;-68
2022/02/19 15:51:55;;;;;;;;;;;;;;;;;;4974661;28;19926;-67
2022/02/19 15:54:22;;;;;;;;;;;;;;;;;;4967422;28;19937;-69
2022/02/19 15:56:49;;;;;;;;;;;;;;;;;;4969301;28;19926;-69
2022/02/19 15:59:16;;;;;;;;;;;;;;;;;;4973902;28;20017;-69
2022/02/19 16:01:43;;;;;;;;;;;;;;;;;;4973294;28;20285;-68
2022/02/19 16:04:10;;;;;;;;;;;;;;;;;;4966491;28;19926;-69
2022/02/19 16:06:37;;;;;;;;;;;;;;;;;;4973881;28;19949;-68
2022/02/19 16:09:04;;;;;;;;;;;;;;;;;;4972993;28;19927;-68
2022/02/19 16:11:30;;;;;;;;;;;;;;;;;;4964771;28;19949;-67
2022/02/19 16:13:57;;;;;;;;;;;;;;;;;;4973153;28;19927;-69
2022/02/19 16:16:24;;;;;;;;;;;;;;;;;;4964700;28;19933;-68
2022/02/19 16:18:51;;;;;;;;;;;;;;;;;;4959944;28;19926;-69
2022/02/19 16:21:18;;;;;;;;;;;;;;;;;;4965229;28;19926;-69
2022/02/19 16:23:45;;;;;;;;;;;;;;;;;;4967579;28;19926;-68
2022/02/19 16:26:13;;;;;;;;;;;;;;;;;;4967264;28;20048;-68
2022/02/19 16:28:40;;;;;;;;;;;;;;;;;;4977475;28;19933;-68
2022/02/19 16:31:07;;;;;;;;;;;;;;;;;;4975312;28;20382;-68
2022/02/19 16:33:35;;;;;;;;;;;;;;;;;;4974271;28;19934;-68
2022/02/19 16:36:05;;;;;;;;;;;;;;;;;;4978491;28;19938;-68
2022/02/19 16:38:32;;;;;;;;;;;;;;;;;;4979277;28;19926;-68
2022/02/19 16:40:59;;;;;;;;;;;;;;;;;;4970350;28;19926;-69
2022/02/19 16:43:25;;;;;;;;;;;;;;;;;;4979815;28;19996;-68
2022/02/19 16:45:52;;;;;;;;;;;;;;;;;;4975892;28;19936;-69
2022/02/19 16:48:19;;;;;;;;;;;;;;;;;;4977617;28;19926;-69
2022/02/19 16:50:46;;;;;;;;;;;;;;;;;;4973894;28;20013;-69
2022/02/19 16:53:13;;;;;;;;;;;;;;;;;;4970927;28;20306;-69
2022/02/19 16:55:40;;;;;;;;;;;;;;;;;;4972999;28;19926;-69